Time;durP1;ratioP1;P1;durP2;ratioP2;P2;SDS_P1;SDS_P2;PMS_P1;PMS_P2;Temp;Humidity;BMP_temperature;BMP_pressure;BME280_temperature;BME280_humidity;BME280_pressure;Samples;Min_cycle;Max_cycle;Signal;HPM_P1;HPM_P2
2023/03/05 00:01:09;;;;;;;47.83;17.98;;;;;;;-1.51;100.00;95686.47;5008209;28;20048;-74
2023/03/05 00:03:35;;;;;;;49.22;17.65;;;;;;;-1.53;100.00;95683.31;5006025;28;20521;-74
2023/03/05 00:06:01;;;;;;;53.83;19.58;;;;;;;-1.57;100.00;95683.69;5011338;28;20038;-74
2023/03/05 00:08:27;;;;;;;55.25;19.00;;;;;;;-1.53;100.00;95683.31;5011437;28;20053;-74
2023/03/05 00:10:57;;;;;;;49.97;18.38;;;;;;;-1.54;100.00;95681.69;5009780;28;20046;-74
2023/03/05 00:13:23;;;;;;;63.95;19.10;;;;;;;-1.55;100.00;95685.25;5010131;28;20072;-74
2023/03/05 00:15:48;;;;;;;52.10;18.85;;;;;;;-1.46;100.00;95684.16;5011008;28;20501;-74
2023/03/05 00:18:14;;;;;;;54.08;19.73;;;;;;;-1.46;100.00;95677.19;5012115;28;20054;-74
2023/03/05 00:20:39;;;;;;;53.10;19.35;;;;;;;-1.41;100.00;95671.44;5012249;28;20042;-74
2023/03/05 00:23:05;;;;;;;49.25;18.13;;;;;;;-1.41;100.00;95671.44;5006067;28;20570;-74
2023/03/05 00:25:30;;;;;;;55.53;18.38;;;;;;;-1.37;100.00;95667.50;5010326;28;20421;-74
2023/03/05 00:27:56;;;;;;;61.45;20.75;;;;;;;-1.43;100.00;95668.28;5011810;28;20037;-74
2023/03/05 00:30:21;;;;;;;53.60;18.52;;;;;;;-1.37;100.00;95672.66;5008862;28;20046;-74
2023/03/05 00:32:47;;;;;;;61.47;19.45;;;;;;;-1.36;100.00;95669.09;5009697;28;20042;-74
2023/03/05 00:35:12;;;;;;;57.60;18.50;;;;;;;-1.30;100.00;95658.00;5009479;28;20059;-74
2023/03/05 00:37:38;;;;;;;50.97;17.25;;;;;;;-1.31;100.00;95656.41;5013023;28;20037;-74
2023/03/05 00:40:04;;;;;;;61.65;17.38;;;;;;;-1.33;100.00;95655.81;5010355;28;20042;-74
2023/03/05 00:42:30;;;;;;;47.03;17.88;;;;;;;-1.35;100.00;95650.06;5007580;28;20038;-74
2023/03/05 00:44:55;;;;;;;58.80;18.58;;;;;;;-1.33;100.00;95642.91;5010553;28;20096;-74
2023/03/05 00:47:21;;;;;;;51.65;18.73;;;;;;;-1.29;100.00;95638.94;5020187;28;20051;-74
2023/03/05 00:49:46;;;;;;;52.50;17.58;;;;;;;-1.20;100.00;95639.59;5000719;28;20398;-74
2023/03/05 00:52:12;;;;;;;52.50;18.55;;;;;;;-1.28;100.00;95643.13;5009058;28;20077;-75
2023/03/05 00:54:37;;;;;;;50.10;19.23;;;;;;;-1.28;100.00;95635.41;5007632;28;20469;-74
2023/03/05 00:57:04;;;;;;;49.80;18.20;;;;;;;-1.33;100.00;95632.56;5012891;28;20550;-74
2023/03/05 00:59:30;;;;;;;57.88;19.42;;;;;;;-1.32;100.00;95628.19;5006667;28;20106;-74
2023/03/05 01:01:55;;;;;;;64.20;19.27;;;;;;;-1.34;100.00;95625.81;5008961;28;20040;-75
2023/03/05 01:04:21;;;;;;;55.33;18.13;;;;;;;-1.31;100.00;95628.00;5009266;28;20604;-74
2023/03/05 01:06:46;;;;;;;54.78;19.05;;;;;;;-1.31;100.00;95625.41;5011026;28;20121;-75
2023/03/05 01:09:12;;;;;;;53.05;19.52;;;;;;;-1.29;100.00;95628.63;5010112;28;20417;-74
2023/03/05 01:11:38;;;;;;;46.83;17.77;;;;;;;-1.29;100.00;95618.28;5004899;28;20053;-75
2023/03/05 01:14:03;;;;;;;59.97;19.90;;;;;;;-1.37;100.00;95612.50;5011781;28;20053;-75
2023/03/05 01:16:29;;;;;;;57.00;18.77;;;;;;;-1.39;100.00;95607.53;5017161;28;20045;-74
2023/03/05 01:18:54;;;;;;;55.28;19.70;;;;;;;-1.36;100.00;95612.31;5009768;28;20395;-75
2023/03/05 01:21:20;;;;;;;56.58;20.23;;;;;;;-1.32;100.00;95608.34;5007880;28;20116;-74
2023/03/05 01:23:46;;;;;;;59.70;20.35;;;;;;;-1.35;100.00;95608.75;5001271;28;20034;-75
2023/03/05 01:26:12;;;;;;;55.60;18.92;;;;;;;-1.34;100.00;95615.47;5012735;28;20077;-74
2023/03/05 01:28:38;;;;;;;50.72;18.27;;;;;;;-1.34;100.00;95610.31;5009280;28;20096;-74
2023/03/05 01:31:11;;;;;;;53.58;18.23;;;;;;;-1.40;100.00;95611.09;5008306;28;20045;-75
2023/03/05 01:33:37;;;;;;;50.85;17.45;;;;;;;-1.35;100.00;95608.75;5002717;28;20147;-75
2023/03/05 01:36:06;;;;;;;53.05;18.70;;;;;;;-1.37;100.00;95600.38;5006862;28;20042;-75
2023/03/05 01:38:32;;;;;;;51.92;17.15;;;;;;;-1.31;100.00;95597.03;5010755;28;20560;-74
2023/03/05 01:40:57;;;;;;;49.97;17.95;;;;;;;-1.36;100.00;95601.97;5011667;28;20071;-75
2023/03/05 01:43:29;;;;;;;61.45;18.98;;;;;;;-1.38;100.00;95591.03;5005967;28;20517;-74
2023/03/05 01:46:34;;;;;;;50.40;18.20;;;;;;;-1.44;100.00;95582.28;5010504;28;20050;-74
2023/03/05 01:49:04;;;;;;;48.80;17.80;;;;;;;-1.41;100.00;95588.84;4955644;28;20121;-74
2023/03/05 01:51:36;;;;;;;54.90;17.92;;;;;;;-1.47;100.00;95585.22;4992556;28;20051;-74
2023/03/05 01:54:21;;;;;;;59.53;19.33;;;;;;;-1.45;100.00;95587.63;5010175;28;20413;-74
2023/03/05 01:56:50;;;;;;;51.72;17.63;;;;;;;-1.48;100.00;95588.00;4999223;28;20065;-74
2023/03/05 01:59:16;;;;;;;50.40;17.48;;;;;;;-1.47;100.00;95584.44;5005278;28;20050;-75
2023/03/05 02:01:46;;;;;;;59.22;19.48;;;;;;;-1.40;100.00;95580.13;5004234;28;20041;-74
2023/03/05 02:04:15;;;;;;;59.47;20.08;;;;;;;-1.45;100.00;95577.31;5003448;28;20037;-74
2023/03/05 02:06:42;;;;;;;53.75;18.58;;;;;;;-1.43;100.00;95575.34;5011523;28;20046;-75
2023/03/05 02:09:08;;;;;;;57.25;18.00;;;;;;;-1.41;100.00;95573.34;5013029;28;20145;-74
2023/03/05 02:11:35;;;;;;;55.97;18.90;;;;;;;-1.41;100.00;95578.50;5009105;28;20092;-75
2023/03/05 02:14:03;;;;;;;66.13;19.63;;;;;;;-1.40;100.00;95570.56;5007539;28;20597;-74
2023/03/05 02:16:35;;;;;;;56.78;18.02;;;;;;;-1.37;100.00;95564.22;5007277;28;20034;-74
2023/03/05 02:19:10;;;;;;;52.58;18.38;;;;;;;-1.34;100.00;95569.00;5007930;28;20525;-74
2023/03/05 02:21:45;;;;;;;51.47;17.73;;;;;;;-1.31;100.00;95573.78;4999846;28;20402;-74
2023/03/05 02:24:12;;;;;;;55.30;19.02;;;;;;;-1.30;100.00;95562.47;5008871;28;20038;-74
2023/03/05 02:26:39;;;;;;;49.47;17.63;;;;;;;-1.24;100.00;95564.28;5006364;28;20049;-74
2023/03/05 02:29:08;;;;;;;51.30;17.85;;;;;;;-1.18;100.00;95561.91;5007805;28;20050;-74
2023/03/05 02:31:35;;;;;;;55.83;18.55;;;;;;;-1.16;100.00;95560.75;5006850;28;20386;-75
2023/03/05 02:34:00;;;;;;;55.10;17.05;;;;;;;-1.11;100.00;95562.75;5008337;28;20048;-75
2023/03/05 02:36:26;;;;;;;50.28;17.40;;;;;;;-1.08;100.00;95562.34;5009765;28;20050;-75
2023/03/05 02:38:52;;;;;;;54.95;19.35;;;;;;;-1.04;100.00;95553.22;5006931;28;20068;-74
2023/03/05 02:41:18;;;;;;;48.10;17.20;;;;;;;-1.00;100.00;95554.44;5008330;28;20053;-75
2023/03/05 02:43:43;;;;;;;50.35;18.17;;;;;;;-0.98;100.00;95551.66;5003684;28;20046;-74
2023/03/05 02:46:09;;;;;;;51.67;18.45;;;;;;;-1.01;100.00;95552.81;5014747;28;20038;-75
2023/03/05 02:48:34;;;;;;;49.03;18.00;;;;;;;-0.96;100.00;95549.66;5007271;28;20045;-74
2023/03/05 02:51:02;;;;;;;53.33;18.00;;;;;;;-1.01;100.00;95557.22;5008107;28;20061;-74
2023/03/05 02:53:28;;;;;;;52.88;17.42;;;;;;;-1.01;100.00;95542.50;5008938;28;20061;-74
2023/03/05 02:55:54;;;;;;;49.63;16.40;;;;;;;-1.00;100.00;95533.75;5010309;28;20053;-75
2023/03/05 02:58:19;;;;;;;53.05;17.85;;;;;;;-1.07;100.00;95533.72;5007329;28;20457;-74
2023/03/05 03:00:45;;;;;;;54.60;18.42;;;;;;;-1.07;100.00;95538.13;5007349;28;20038;-74
2023/03/05 03:03:11;;;;;;;53.83;17.45;;;;;;;-1.05;100.00;95518.84;5005621;28;20084;-74
2023/03/05 03:05:37;;;;;;;48.72;16.95;;;;;;;-1.07;100.00;95517.44;5009118;28;20413;-74
2023/03/05 03:08:03;;;;;;;51.40;17.70;;;;;;;-1.08;100.00;95515.84;5013495;28;20042;-74
2023/03/05 03:10:28;;;;;;;46.25;15.70;;;;;;;-1.05;100.00;95515.47;5012544;28;20517;-75
2023/03/05 03:12:54;;;;;;;45.33;17.63;;;;;;;-1.19;100.00;95513.84;5017602;28;20148;-74
2023/03/05 03:15:20;;;;;;;52.50;17.63;;;;;;;-1.17;100.00;95501.53;5010963;28;20129;-74
2023/03/05 03:17:45;;;;;;;43.50;16.23;;;;;;;-1.07;100.00;95501.97;5012976;28;20568;-75
2023/03/05 03:20:14;;;;;;;45.72;16.80;;;;;;;-1.17;100.00;95501.53;5011667;28;20045;-74
2023/03/05 03:22:40;;;;;;;53.42;17.77;;;;;;;-0.99;100.00;95499.19;5016100;28;20046;-74
2023/03/05 03:25:06;;;;;;;51.45;18.63;;;;;;;-1.22;100.00;95495.19;5011856;28;20076;-74
2023/03/05 03:27:32;;;;;;;49.42;18.83;;;;;;;-1.23;100.00;95503.91;5011781;28;20073;-74
2023/03/05 03:30:03;;;;;;;54.08;18.13;;;;;;;-1.16;100.00;95505.72;5010581;28;20053;-74
2023/03/05 03:32:29;;;;;;;57.30;18.55;;;;;;;-1.22;100.00;95496.97;5012678;28;20045;-74
2023/03/05 03:34:56;;;;;;;63.78;19.38;;;;;;;-1.16;100.00;95492.81;5005247;28;20041;-74
2023/03/05 03:37:21;;;;;;;55.78;19.50;;;;;;;-1.07;100.00;95501.97;5012035;28;20445;-74
2023/03/05 03:39:47;;;;;;;56.63;18.13;;;;;;;-1.06;100.00;95493.22;5011780;28;20069;-74
2023/03/05 03:42:16;;;;;;;55.05;18.08;;;;;;;-1.11;100.00;95493.78;5005876;28;20049;-74
2023/03/05 03:44:41;;;;;;;58.08;18.65;;;;;;;-1.00;100.00;95499.41;5012296;28;20108;-74
2023/03/05 03:47:07;;;;;;;41.70;15.60;;;;;;;-1.00;100.00;95486.47;5010768;28;20046;-74
2023/03/05 03:49:32;;;;;;;58.53;20.25;;;;;;;-1.05;100.00;95485.28;5012528;28;20045;-74
2023/03/05 03:51:58;;;;;;;61.25;19.13;;;;;;;-0.96;100.00;95483.28;5009398;28;20049;-74
2023/03/05 03:54:24;;;;;;;52.35;18.38;;;;;;;-0.95;100.00;95490.06;5012259;28;20077;-74
2023/03/05 03:56:49;;;;;;;55.08;19.33;;;;;;;-1.01;100.00;95480.50;5010994;28;20042;-74
2023/03/05 03:59:15;;;;;;;55.58;19.85;;;;;;;-1.17;100.00;95449.91;5014777;28;20497;-74
2023/03/05 04:01:40;;;;;;;56.05;19.42;;;;;;;-0.94;100.00;95481.31;5008753;28;20103;-74
2023/03/05 04:04:06;;;;;;;63.25;19.73;;;;;;;-0.97;100.00;95476.53;5009104;28;20085;-74
2023/03/05 04:06:33;;;;;;;54.13;18.60;;;;;;;-0.88;100.00;95477.94;5009716;28;20053;-74
2023/03/05 04:08:59;;;;;;;51.85;18.67;;;;;;;-0.92;100.00;95478.50;5010869;28;20037;-74
2023/03/05 04:11:24;;;;;;;57.50;19.70;;;;;;;-0.90;100.00;95474.75;5010973;28;20516;-74
2023/03/05 04:13:50;;;;;;;53.80;18.58;;;;;;;-0.88;100.00;95475.38;5008023;28;20038;-73
2023/03/05 04:16:16;;;;;;;57.90;19.13;;;;;;;-0.90;100.00;95467.00;5008435;28;20512;-73
2023/03/05 04:18:42;;;;;;;63.78;19.88;;;;;;;-0.95;100.00;95453.09;5011427;28;20080;-73
2023/03/05 04:21:08;;;;;;;50.72;18.52;;;;;;;-0.85;100.00;95460.44;5008347;28;20050;-74
2023/03/05 04:23:34;;;;;;;53.67;18.08;;;;;;;-0.84;100.00;95459.47;5012413;28;20088;-73
2023/03/05 04:26:00;;;;;;;61.83;20.38;;;;;;;-0.92;100.00;95445.75;5010926;28;20038;-74
2023/03/05 04:28:25;;;;;;;57.67;17.35;;;;;;;-0.90;100.00;95446.34;5009832;28;20042;-74
2023/03/05 04:30:51;;;;;;;53.53;19.48;;;;;;;-0.80;100.00;95450.31;5004424;28;20037;-73
2023/03/05 04:33:17;;;;;;;56.17;17.60;;;;;;;-0.81;100.00;95446.13;5010973;28;20062;-74
2023/03/05 04:35:42;;;;;;;58.28;19.13;;;;;;;-0.85;100.00;95447.53;5017915;28;20048;-74
2023/03/05 04:38:09;;;;;;;60.78;19.05;;;;;;;-0.80;100.00;95450.31;5015277;28;20046;-74
2023/03/05 04:40:34;;;;;;;62.75;18.50;;;;;;;-0.73;100.00;95445.94;5010835;28;20049;-74
2023/03/05 04:43:00;;;;;;;53.65;18.27;;;;;;;-0.70;100.00;95435.22;5010841;28;20033;-73
2023/03/05 04:45:26;;;;;;;55.35;17.50;;;;;;;-0.72;100.00;95443.16;5011155;28;20567;-74
2023/03/05 04:47:52;;;;;;;56.55;18.45;;;;;;;-0.61;100.00;95435.78;5010346;28;20053;-74
2023/03/05 04:50:17;;;;;;;53.17;16.77;;;;;;;-0.63;100.00;95441.16;5010361;28;20042;-75
2023/03/05 04:52:44;;;;;;;59.92;20.30;;;;;;;-0.67;100.00;95439.19;5008679;28;20075;-74
2023/03/05 04:55:11;;;;;;;49.92;18.15;;;;;;;-0.65;100.00;95440.56;5017933;28;20042;-74
2023/03/05 04:57:38;;;;;;;51.00;17.05;;;;;;;-0.68;100.00;95425.44;5013149;28;20034;-74
2023/03/05 05:00:11;;;;;;;55.10;18.77;;;;;;;-0.63;100.00;95432.59;5010694;28;20671;-74
2023/03/05 05:02:36;;;;;;;50.07;17.23;;;;;;;-0.64;100.00;95429.22;5009826;28;20584;-74
2023/03/05 05:05:02;;;;;;;55.92;18.92;;;;;;;-0.60;100.00;95430.41;5006541;28;20295;-74
2023/03/05 05:07:28;;;;;;;51.78;17.63;;;;;;;-0.63;100.00;95436.00;5008301;28;20072;-74
2023/03/05 05:09:54;;;;;;;48.38;16.63;;;;;;;-0.68;100.00;95427.25;5011070;28;20442;-74
2023/03/05 05:12:19;;;;;;;53.33;18.33;;;;;;;-0.71;100.00;95424.06;5005307;28;20131;-74
2023/03/05 05:14:45;;;;;;;54.30;18.38;;;;;;;-0.63;100.00;95430.81;5024522;28;20715;-74
2023/03/05 05:17:10;;;;;;;58.30;18.30;;;;;;;-0.67;100.00;95424.47;5009515;28;20065;-74
2023/03/05 05:19:36;;;;;;;56.72;18.42;;;;;;;-0.61;100.00;95426.25;5006668;28;20050;-74
2023/03/05 05:22:01;;;;;;;46.45;16.85;;;;;;;-0.63;100.00;95425.66;5013254;28;20525;-75
2023/03/05 05:24:27;;;;;;;49.40;17.55;;;;;;;-0.63;100.00;95415.31;5008757;28;20453;-74
2023/03/05 05:26:54;;;;;;;51.35;17.23;;;;;;;-0.62;100.00;95424.63;5009783;28;20121;-75
2023/03/05 05:29:19;;;;;;;48.80;17.75;;;;;;;-0.59;100.00;95423.44;5003631;28;21622;-74
2023/03/05 05:31:45;;;;;;;49.30;17.52;;;;;;;-0.58;100.00;95428.41;5004557;28;20092;-74
2023/03/05 05:34:11;;;;;;;47.47;16.75;;;;;;;-0.58;100.00;95423.25;5007782;28;20041;-75
2023/03/05 05:36:36;;;;;;;47.13;17.50;;;;;;;-0.51;100.00;95422.47;5010618;28;20069;-75
2023/03/05 05:39:02;;;;;;;55.13;17.45;;;;;;;-0.49;100.00;95430.81;5013617;28;20034;-74
2023/03/05 05:41:28;;;;;;;47.33;16.63;;;;;;;-0.42;100.00;95426.41;5005576;28;20042;-75
2023/03/05 05:43:53;;;;;;;48.58;17.25;;;;;;;-0.40;100.00;95424.44;5005422;28;20524;-75
2023/03/05 05:46:20;;;;;;;48.42;17.75;;;;;;;-0.42;100.00;95421.25;5009142;28;20486;-73
2023/03/05 05:48:46;;;;;;;45.88;16.90;;;;;;;-0.51;100.00;95432.81;5007238;28;20169;-73
2023/03/05 05:51:15;;;;;;;48.35;17.48;;;;;;;-0.47;100.00;95421.06;5008632;28;20100;-74
2023/03/05 05:53:41;;;;;;;46.45;16.88;;;;;;;-0.46;100.00;95426.03;5001664;28;20038;-73
2023/03/05 05:56:08;;;;;;;54.83;16.95;;;;;;;-0.42;100.00;95427.19;5011650;28;20048;-73
2023/03/05 05:58:35;;;;;;;47.20;16.85;;;;;;;-0.36;100.00;95436.75;5009877;28;20536;-73
2023/03/05 06:01:00;;;;;;;45.92;16.58;;;;;;;-0.47;100.00;95423.66;5003648;28;20038;-74
2023/03/05 06:03:26;;;;;;;45.50;16.15;;;;;;;-0.48;100.00;95427.22;5003281;28;20469;-73
2023/03/05 06:05:52;;;;;;;55.17;16.25;;;;;;;-0.43;100.00;95429.97;5009595;28;20046;-73
2023/03/05 06:08:18;;;;;;;49.38;16.45;;;;;;;-0.42;100.00;95431.59;5007673;28;20049;-74
2023/03/05 06:10:43;;;;;;;46.53;16.45;;;;;;;-0.37;100.00;95424.03;5008413;28;20053;-73
2023/03/05 06:13:09;;;;;;;44.97;15.45;;;;;;;-0.35;100.00;95427.97;5007915;28;20421;-74
2023/03/05 06:15:35;;;;;;;44.17;15.43;;;;;;;-0.30;100.00;95429.97;5009730;28;20042;-73
2023/03/05 06:18:00;;;;;;;41.28;14.93;;;;;;;-0.34;100.00;95428.78;5008868;28;20038;-74
2023/03/05 06:20:27;;;;;;;44.83;15.43;;;;;;;-0.29;100.00;95416.03;5003293;28;20034;-74
2023/03/05 06:22:53;;;;;;;45.10;15.50;;;;;;;-0.29;100.00;95421.19;5008845;28;20068;-74
2023/03/05 06:25:19;;;;;;;49.35;16.20;;;;;;;-0.30;100.00;95422.22;5009883;28;20045;-75
2023/03/05 06:27:45;;;;;;;40.15;15.82;;;;;;;-0.21;100.00;95426.16;5009509;28;20574;-74
2023/03/05 06:30:11;;;;;;;45.72;15.15;;;;;;;-0.21;100.00;95426.16;5007837;28;20049;-73
2023/03/05 06:32:37;;;;;;;39.08;14.95;;;;;;;-0.19;100.00;95424.19;5008293;28;20033;-74
2023/03/05 06:35:03;;;;;;;42.00;15.25;;;;;;;-0.16;100.00;95420.38;5010382;28;20042;-75
2023/03/05 06:37:28;;;;;;;39.50;14.40;;;;;;;-0.04;100.00;95423.16;5010584;28;20050;-74
2023/03/05 06:39:54;;;;;;;42.33;14.27;;;;;;;-0.08;100.00;95424.53;5009859;28;20042;-74
2023/03/05 06:42:20;;;;;;;43.45;13.85;;;;;;;-0.05;100.00;95424.13;5014863;28;20038;-74
2023/03/05 06:44:45;;;;;;;41.28;14.20;;;;;;;-0.07;100.00;95418.34;5019199;28;20042;-74
2023/03/05 06:47:11;;;;;;;42.63;14.30;;;;;;;-0.03;100.00;95419.53;5013366;28;20034;-74
2023/03/05 06:49:37;;;;;;;33.85;14.10;;;;;;;-0.07;100.00;95423.53;5013522;28;20041;-75
2023/03/05 06:52:04;;;;;;;46.17;15.05;;;;;;;0.02;100.00;95417.16;5020622;28;20033;-74
2023/03/05 06:54:30;;;;;;;38.47;13.88;;;;;;;0.08;100.00;95415.53;5014480;28;20046;-74
2023/03/05 06:56:56;;;;;;;40.15;14.02;;;;;;;0.05;100.00;95416.72;5012265;28;20045;-74
2023/03/05 06:59:21;;;;;;;38.60;14.27;;;;;;;0.17;100.00;95414.28;5014951;28;20112;-75
2023/03/05 07:01:47;;;;;;;36.25;11.98;;;;;;;0.20;100.00;95420.84;5003854;28;20053;-74
2023/03/05 07:04:14;;;;;;;39.95;14.05;;;;;;;0.26;100.00;95426.00;5014422;28;20046;-72
2023/03/05 07:06:41;;;;;;;43.97;13.93;;;;;;;0.21;100.00;95415.47;5009041;28;20034;-75
2023/03/05 07:09:11;;;;;;;39.88;14.02;;;;;;;0.10;100.00;95411.75;5010847;28;20038;-74
2023/03/05 07:11:37;;;;;;;39.45;14.18;;;;;;;0.23;100.00;95413.47;5010327;28;20551;-74
2023/03/05 07:14:03;;;;;;;46.00;13.60;;;;;;;0.23;100.00;95412.66;5010306;28;20096;-74
2023/03/05 07:16:33;;;;;;;34.13;13.80;;;;;;;0.25;100.00;95415.88;5008655;28;20045;-74
2023/03/05 07:19:01;;;;;;;36.30;14.00;;;;;;;0.31;100.00;95409.84;5010684;28;20042;-74
2023/03/05 07:21:29;;;;;;;38.28;13.93;;;;;;;0.21;100.00;95415.47;5012546;28;20077;-74
2023/03/05 07:23:57;;;;;;;39.40;13.80;;;;;;;0.23;100.00;95417.84;5012127;28;20041;-74
2023/03/05 07:26:23;;;;;;;34.88;13.38;;;;;;;0.25;100.00;95411.47;5011021;28;20129;-76
2023/03/05 07:28:49;;;;;;;38.40;13.73;;;;;;;0.32;100.00;95416.63;5015814;28;20049;-76
2023/03/05 07:31:18;;;;;;;40.75;14.38;;;;;;;0.22;100.00;95405.94;5014209;28;20038;-77
2023/03/05 07:33:48;;;;;;;35.67;12.88;;;;;;;0.45;100.00;95416.53;5012055;28;20042;-76
2023/03/05 07:36:15;;;;;;;42.30;13.98;;;;;;;0.43;100.00;95413.38;5012709;28;20044;-75
2023/03/05 07:38:40;;;;;;;40.05;12.82;;;;;;;0.40;100.00;95408.59;5013074;28;20501;-75
2023/03/05 07:41:12;;;;;;;36.42;13.73;;;;;;;0.47;100.00;95409.34;5013723;28;20114;-75
2023/03/05 07:43:38;;;;;;;37.60;14.40;;;;;;;0.39;100.00;95412.22;5008191;28;20050;-76
2023/03/05 07:46:06;;;;;;;36.75;12.80;;;;;;;0.54;100.00;95418.91;5013376;28;20045;-75
2023/03/05 07:48:32;;;;;;;32.80;12.52;;;;;;;0.44;100.00;95414.94;5020271;28;20042;-78
2023/03/05 07:51:02;;;;;;;42.05;15.23;;;;;;;0.54;100.00;95403.38;5014288;28;20038;-77
2023/03/05 07:53:28;;;;;;;41.17;14.93;;;;;;;0.55;100.00;95404.94;5012590;28;20065;-75
2023/03/05 07:55:53;;;;;;;38.42;13.13;;;;;;;0.58;100.00;95413.09;5017362;28;20034;-76
2023/03/05 07:58:19;;;;;;;36.95;13.95;;;;;;;0.48;100.00;95400.59;5017924;28;20038;-75
2023/03/05 08:00:45;;;;;;;37.03;13.32;;;;;;;0.52;100.00;95400.97;5009150;28;20558;-75
2023/03/05 08:03:10;;;;;;;42.90;13.63;;;;;;;0.65;100.00;95410.47;5006146;28;20038;-75
2023/03/05 08:05:40;;;;;;;32.05;13.32;;;;;;;0.64;100.00;95398.50;5011851;28;20042;-75
2023/03/05 08:08:07;;;;;;;40.60;14.10;;;;;;;0.61;100.00;95401.53;5012142;28;20049;-77
2023/03/05 08:10:34;;;;;;;36.38;13.75;;;;;;;0.69;100.00;95391.72;5012719;28;20034;-76
2023/03/05 08:12:59;;;;;;;36.10;13.63;;;;;;;0.68;100.00;95386.75;5002097;28;20044;-76
2023/03/05 08:15:25;;;;;;;33.80;13.25;;;;;;;0.74;100.00;95388.47;5010933;28;20041;-76
2023/03/05 08:17:50;;;;;;;38.15;13.35;;;;;;;0.92;100.00;95390.34;5011985;28;20077;-76
2023/03/05 08:20:18;;;;;;;37.67;13.18;;;;;;;0.78;100.00;95394.84;5011905;28;20045;-77
2023/03/05 08:22:44;;;;;;;35.53;13.82;;;;;;;0.81;100.00;95399.59;5016912;28;20048;-77
2023/03/05 08:25:10;;;;;;;38.72;12.88;;;;;;;0.79;100.00;95396.44;5019096;28;20445;-79
2023/03/05 08:27:41;;;;;;;36.45;12.70;;;;;;;0.89;100.00;95395.16;5013830;28;20038;-76
2023/03/05 08:30:08;;;;;;;37.60;12.65;;;;;;;0.94;100.00;95388.34;5014471;28;20377;-77
2023/03/05 08:32:33;;;;;;;38.83;13.65;;;;;;;0.89;100.00;95380.41;5014346;28;20100;-75
2023/03/05 08:35:00;;;;;;;37.33;14.23;;;;;;;0.89;100.00;95389.97;5005456;28;20449;-75
2023/03/05 08:37:26;;;;;;;44.30;17.98;;;;;;;0.83;100.00;95382.06;5012982;28;20065;-74
2023/03/05 08:39:51;;;;;;;33.80;12.93;;;;;;;0.97;100.00;95387.13;5010872;28;20046;-74
2023/03/05 08:42:17;;;;;;;37.60;13.95;;;;;;;1.12;100.00;95385.00;5006874;28;20041;-75
2023/03/05 08:44:42;;;;;;;38.05;14.20;;;;;;;0.90;100.00;95386.38;5008987;28;20034;-74
2023/03/05 08:47:08;;;;;;;40.97;14.00;;;;;;;0.94;100.00;95387.56;5016882;28;20049;-75
2023/03/05 08:49:33;;;;;;;39.65;14.98;;;;;;;0.96;100.00;95380.34;5012796;28;20057;-75
2023/03/05 08:51:59;;;;;;;33.85;13.18;;;;;;;1.17;100.00;95367.00;5004960;28;20077;-74
2023/03/05 08:54:24;;;;;;;41.55;14.88;;;;;;;1.26;100.00;95364.16;5015034;28;20505;-73
2023/03/05 08:56:50;;;;;;;34.10;12.80;;;;;;;1.68;100.00;95361.72;5016699;28;20049;-74
2023/03/05 08:59:15;;;;;;;40.67;13.63;;;;;;;1.70;100.00;95367.50;5012498;28;20037;-75
2023/03/05 09:01:41;;;;;;;39.33;14.38;;;;;;;1.46;100.00;95364.75;5008607;28;21661;-74
2023/03/05 09:04:06;;;;;;;40.00;14.05;;;;;;;1.31;100.00;95359.13;5011179;28;20037;-75
2023/03/05 09:06:33;;;;;;;43.83;14.07;;;;;;;1.54;100.00;95356.69;5011121;28;20045;-74
2023/03/05 09:08:59;;;;;;;42.65;14.75;;;;;;;1.73;100.00;95364.47;5011785;28;20046;-74
2023/03/05 09:11:24;;;;;;;40.92;13.45;;;;;;;1.44;100.00;95366.78;5010867;28;20053;-74
2023/03/05 09:13:50;;;;;;;33.92;13.35;;;;;;;1.45;100.00;95355.41;5016236;28;20077;-74
2023/03/05 09:16:17;;;;;;;35.58;13.10;;;;;;;1.55;100.00;95358.28;5011421;28;20061;-74
2023/03/05 09:18:43;;;;;;;42.45;14.45;;;;;;;1.44;100.00;95356.41;5008572;28;20044;-76
2023/03/05 09:21:12;;;;;;;34.75;12.73;;;;;;;1.48;100.00;95347.19;5011099;28;20128;-74
2023/03/05 09:23:40;;;;;;;34.13;13.13;;;;;;;1.78;100.00;95341.28;5011689;28;20045;-75
2023/03/05 09:26:08;;;;;;;34.25;14.15;;;;;;;1.68;100.00;95340.97;5013511;28;20045;-75
2023/03/05 09:28:33;;;;;;;35.92;13.10;;;;;;;1.74;100.00;95345.31;5016950;28;20045;-75
2023/03/05 09:31:03;;;;;;;39.22;13.55;;;;;;;1.82;100.00;95339.03;5017446;28;20084;-76
2023/03/05 09:33:30;;;;;;;37.38;13.93;;;;;;;1.71;100.00;95340.53;5015617;28;20406;-74
2023/03/05 09:35:55;;;;;;;39.47;14.00;;;;;;;1.81;100.00;95343.44;5018899;28;20037;-74
2023/03/05 09:38:21;;;;;;;33.42;13.30;;;;;;;1.87;100.00;95337.34;5013741;28;20045;-74
2023/03/05 09:41:06;;;;;;;38.67;13.35;;;;;;;1.77;100.00;95338.88;5018101;28;20046;-75
2023/03/05 09:43:56;;;;;;;32.00;12.88;;;;;;;1.95;100.00;95335.47;5005194;28;20128;-74
2023/03/05 09:46:54;;;;;;;33.83;13.02;;;;;;;2.10;100.00;95332.47;5023619;28;20049;-74
2023/03/05 09:49:31;;;;;;;37.90;14.80;;;;;;;2.10;100.00;95341.06;4995744;28;20054;-74
2023/03/05 09:52:06;;;;;;;35.63;12.82;;;;;;;1.87;100.00;95342.56;5001626;28;20451;-73
2023/03/05 09:54:42;;;;;;;39.40;13.70;;;;;;;2.13;100.00;95338.03;5012240;28;20046;-73
2023/03/05 09:57:18;;;;;;;42.20;15.00;;;;;;;2.04;100.00;95336.75;5014163;28;20042;-76
2023/03/05 09:59:52;;;;;;;36.00;14.57;;;;;;;2.14;100.00;95344.00;5010344;28;20514;-76
2023/03/05 10:02:33;;;;;;;37.38;13.10;;;;;;;2.03;100.00;95335.19;5007003;28;20042;-75
2023/03/05 10:05:24;;;;;;;35.40;13.50;;;;;;;2.00;100.00;95322.66;5008822;28;20050;-75
2023/03/05 10:08:00;;;;;;;36.17;12.63;;;;;;;1.85;100.00;95321.22;5003464;28;20588;-77
2023/03/05 10:10:36;;;;;;;34.75;12.27;;;;;;;1.95;100.00;95325.09;5010912;28;20088;-75
2023/03/05 10:13:16;;;;;;;32.50;12.57;;;;;;;2.03;100.00;95317.00;5009229;28;20048;-75
2023/03/05 10:16:25;;;;;;;35.28;13.05;;;;;;;1.78;100.00;95323.13;5014894;28;20041;-76
2023/03/05 10:19:24;;;;;;;32.85;12.15;;;;;;;1.93;100.00;95327.91;4981886;28;20053;-73
2023/03/05 10:22:13;;;;;;;38.80;13.75;;;;;;;1.99;100.00;95321.06;5016553;28;20417;-76
2023/03/05 10:24:57;;;;;;;40.00;14.65;;;;;;;2.04;100.00;95318.56;5014717;28;20101;-76
2023/03/05 10:27:48;;;;;;;34.35;13.10;;;;;;;1.85;100.00;95316.03;5018358;28;20113;-76
2023/03/05 10:30:42;;;;;;;36.33;12.75;;;;;;;1.92;100.00;95309.97;5017211;28;20041;-75
2023/03/05 10:33:17;;;;;;;35.30;12.75;;;;;;;1.88;100.00;95302.63;5010829;28;20045;-75
2023/03/05 10:35:45;;;;;;;47.50;14.50;;;;;;;1.92;100.00;95302.19;5028021;28;20041;-75
2023/03/05 10:38:30;;;;;;;35.92;12.85;;;;;;;1.73;100.00;95307.41;5043868;28;20029;-74
2023/03/05 10:41:18;;;;;;;39.70;14.20;;;;;;;1.97;100.00;95302.28;5045480;28;20029;-76
2023/03/05 10:44:02;;;;;;;30.50;12.57;;;;;;;1.95;100.00;95294.72;5026438;28;20113;-74
2023/03/05 10:46:35;;;;;;;38.33;13.93;;;;;;;2.23;100.00;95286.38;5044146;28;20033;-74
2023/03/05 10:49:04;;;;;;;34.60;12.95;;;;;;;2.27;100.00;95285.91;5040379;28;20052;-73
2023/03/05 10:51:57;;;;;;;37.78;13.18;;;;;;;2.05;100.00;95294.22;5046554;28;20057;-74
2023/03/05 10:54:28;;;;;;;43.60;14.90;;;;;;;2.22;100.00;95292.56;5034959;28;20025;-73
2023/03/05 10:57:33;;;;;;;34.75;13.50;;;;;;;2.44;100.00;95281.66;5035763;28;20085;-75
2023/03/05 11:00:05;;;;;;;36.27;13.30;;;;;;;2.42;100.00;95278.50;5035137;28;20034;-75
2023/03/05 11:02:32;;;;;;;29.40;12.48;;;;;;;2.08;100.00;95273.00;5023328;28;20294;-77
2023/03/05 11:04:58;;;;;;;40.15;13.60;;;;;;;2.18;100.00;95270.66;5005363;28;20045;-76
2023/03/05 11:07:23;;;;;;;37.65;13.95;;;;;;;2.29;100.00;95265.72;5009222;28;20053;-76
2023/03/05 11:10:15;;;;;;;33.53;13.13;;;;;;;2.54;100.00;95261.16;5011321;28;20100;-75
2023/03/05 11:12:52;;;;;;;28.02;11.45;;;;;;;2.22;100.00;95256.22;5006219;28;20060;-74
2023/03/05 11:15:27;;;;;;;35.70;12.20;;;;;;;2.22;100.00;95256.22;5010435;28;20042;-74
2023/03/05 11:18:16;;;;;;;36.30;12.60;;;;;;;2.50;100.00;95249.63;5007559;28;20049;-75